Time;durP1;ratioP1;P1;durP2;ratioP2;P2;SDS_P1;SDS_P2;PMS_P1;PMS_P2;Temp;Humidity;BMP_temperature;BMP_pressure;BME280_temperature;BME280_humidity;BME280_pressure;Samples;Min_cycle;Max_cycle;Signal;HPM_P1;HPM_P2
2020/12/15 00:01:20;;;;;;;4.05;2.13;;;7.80;99.90;;;;;;5065944;28;20040;-77
2020/12/15 00:03:46;;;;;;;2.50;1.50;;;7.70;99.90;;;;;;5065855;28;20037;-77
2020/12/15 00:06:11;;;;;;;2.35;1.63;;;7.70;99.90;;;;;;5065387;28;20523;-76
2020/12/15 00:08:37;;;;;;;3.33;2.03;;;7.70;99.90;;;;;;5066375;28;20017;-76
2020/12/15 00:11:02;;;;;;;2.35;1.48;;;7.70;99.90;;;;;;5067328;28;20076;-76
2020/12/15 00:13:29;;;;;;;3.78;1.98;;;7.70;99.90;;;;;;5067102;28;20035;-75
2020/12/15 00:15:54;;;;;;;4.38;2.45;;;7.70;99.90;;;;;;5067195;28;20040;-76
2020/12/15 00:18:20;;;;;;;3.17;1.70;;;7.70;99.90;;;;;;5065831;28;20066;-76
2020/12/15 00:20:45;;;;;;;3.47;1.85;;;7.70;99.90;;;;;;5066887;28;20021;-76
2020/12/15 00:23:11;;;;;;;2.53;2.00;;;7.70;99.90;;;;;;5067011;28;20067;-76
2020/12/15 00:25:37;;;;;;;3.25;1.70;;;7.70;99.90;;;;;;5066023;28;20048;-76
2020/12/15 00:28:02;;;;;;;4.15;1.90;;;7.60;99.90;;;;;;5067157;28;20017;-77
2020/12/15 00:30:28;;;;;;;2.95;2.05;;;7.70;99.90;;;;;;5066709;28;20392;-75
2020/12/15 00:32:54;;;;;;;3.28;2.22;;;7.60;99.90;;;;;;5066913;28;20036;-75
2020/12/15 00:35:20;;;;;;;2.63;1.60;;;7.60;99.90;;;;;;5066839;28;20036;-76
2020/12/15 00:37:46;;;;;;;2.40;1.50;;;7.60;99.90;;;;;;5066751;28;20013;-77
2020/12/15 00:40:11;;;;;;;2.67;1.58;;;7.50;99.90;;;;;;5067090;28;20024;-77
2020/12/15 00:42:37;;;;;;;4.45;1.88;;;7.40;99.90;;;;;;5066848;28;20028;-78
2020/12/15 00:45:04;;;;;;;3.20;1.70;;;7.60;99.90;;;;;;5066890;28;20089;-76
2020/12/15 00:47:29;;;;;;;3.10;1.83;;;7.50;99.90;;;;;;5066695;28;20063;-76
2020/12/15 00:49:55;;;;;;;4.22;1.52;;;7.60;99.90;;;;;;5066646;28;20025;-75
2020/12/15 00:52:24;;;;;;;2.38;1.92;;;7.60;99.90;;;;;;5066439;28;20017;-75
2020/12/15 00:54:50;;;;;;;3.13;1.60;;;7.60;99.90;;;;;;5066534;28;20063;-74
2020/12/15 00:57:16;;;;;;;1.77;1.52;;;7.60;99.90;;;;;;5066411;28;20028;-75
2020/12/15 00:59:43;;;;;;;2.38;1.38;;;7.60;99.90;;;;;;5066323;28;20013;-77
2020/12/15 01:02:08;;;;;;;2.60;1.92;;;7.50;99.90;;;;;;5065118;28;20032;-75
2020/12/15 01:04:34;;;;;;;2.75;1.75;;;7.60;99.90;;;;;;5066247;28;20041;-75
2020/12/15 01:06:59;;;;;;;2.92;1.73;;;7.50;99.90;;;;;;5066157;28;20461;-76
2020/12/15 01:09:25;;;;;;;4.40;2.05;;;7.60;99.90;;;;;;5064735;28;20021;-76
2020/12/15 01:11:50;;;;;;;4.40;2.03;;;7.60;99.90;;;;;;5066084;28;20347;-76
2020/12/15 01:14:16;;;;;;;2.20;1.23;;;7.60;99.90;;;;;;5066094;28;20088;-76
2020/12/15 01:16:42;;;;;;;2.13;1.13;;;7.60;99.90;;;;;;5066079;28;20025;-77
2020/12/15 01:19:07;;;;;;;2.47;1.75;;;7.60;99.90;;;;;;5066260;28;20409;-78
2020/12/15 01:21:33;;;;;;;2.67;1.50;;;7.60;99.90;;;;;;5066160;28;20031;-76
2020/12/15 01:23:58;;;;;;;3.28;1.80;;;7.70;99.90;;;;;;5065992;28;20050;-76
2020/12/15 01:26:24;;;;;;;2.45;1.73;;;7.70;99.90;;;;;;5065895;28;20032;-76
2020/12/15 01:28:50;;;;;;;4.25;2.00;;;7.70;99.90;;;;;;5065752;28;20113;-77
2020/12/15 01:31:23;;;;;;;2.72;1.88;;;7.70;99.90;;;;;;5063568;28;20024;-75
2020/12/15 01:33:49;;;;;;;3.57;1.90;;;7.70;99.90;;;;;;5065681;28;20236;-75
2020/12/15 01:36:15;;;;;;;2.78;1.73;;;7.70;99.90;;;;;;5065751;28;20027;-76
2020/12/15 01:38:41;;;;;;;4.80;2.22;;;7.70;99.90;;;;;;5065751;28;20032;-75
2020/12/15 01:41:07;;;;;;;3.25;1.83;;;7.70;99.90;;;;;;5065792;28;20021;-75
2020/12/15 01:43:32;;;;;;;1.85;1.23;;;7.70;99.90;;;;;;5065537;28;20112;-76
2020/12/15 01:45:58;;;;;;;7.75;1.92;;;7.70;99.90;;;;;;5065372;28;20181;-76
2020/12/15 01:48:24;;;;;;;6.82;2.10;;;7.70;99.90;;;;;;5065624;28;20067;-75
2020/12/15 01:50:50;;;;;;;6.28;1.88;;;7.70;99.90;;;;;;5064042;28;20025;-77
2020/12/15 01:53:16;;;;;;;2.58;1.63;;;7.70;99.90;;;;;;5065313;28;20025;-76
2020/12/15 01:55:44;;;;;;;2.25;1.75;;;7.60;99.90;;;;;;5065386;28;20037;-76
2020/12/15 01:58:09;;;;;;;2.17;1.58;;;7.60;99.90;;;;;;5065213;28;20454;-76
2020/12/15 02:00:35;;;;;;;1.98;1.58;;;7.60;99.90;;;;;;5064018;28;20052;-75
2020/12/15 02:03:02;;;;;;;3.78;1.70;;;7.60;99.90;;;;;;5063701;28;20021;-75
2020/12/15 02:05:28;;;;;;;2.83;2.03;;;7.50;99.90;;;;;;5064738;28;20037;-75
2020/12/15 02:07:54;;;;;;;3.83;2.15;;;7.60;99.90;;;;;;5065086;28;20032;-76
2020/12/15 02:10:19;;;;;;;2.15;1.58;;;7.50;99.90;;;;;;5063791;28;20032;-76
2020/12/15 02:12:45;;;;;;;6.10;1.60;;;7.40;99.90;;;;;;5063870;28;20025;-76
2020/12/15 02:15:11;;;;;;;3.20;1.58;;;7.40;99.90;;;;;;5064778;28;20045;-77
2020/12/15 02:17:37;;;;;;;4.03;2.08;;;7.40;99.90;;;;;;5063906;28;20116;-75
2020/12/15 02:20:07;;;;;;;3.15;1.73;;;7.40;99.90;;;;;;5064944;28;20017;-76
2020/12/15 02:22:33;;;;;;;2.60;1.45;;;7.40;99.90;;;;;;5064883;28;20052;-76
2020/12/15 02:24:59;;;;;;;2.63;1.52;;;7.40;99.90;;;;;;5064733;28;20074;-76
2020/12/15 02:27:25;;;;;;;2.25;1.33;;;7.40;99.90;;;;;;5063707;28;20024;-75
2020/12/15 02:29:51;;;;;;;7.53;2.20;;;7.40;99.90;;;;;;5064772;28;20084;-75
2020/12/15 02:32:16;;;;;;;4.93;2.25;;;7.40;99.90;;;;;;5063380;28;20028;-77
2020/12/15 02:34:42;;;;;;;4.13;2.15;;;7.50;99.90;;;;;;5064668;28;20096;-76
2020/12/15 02:37:09;;;;;;;4.45;1.77;;;7.40;99.90;;;;;;5063518;28;20108;-77
2020/12/15 02:39:35;;;;;;;3.25;1.40;;;7.40;99.90;;;;;;5064858;28;20080;-77
2020/12/15 02:42:01;;;;;;;5.88;1.95;;;7.30;99.90;;;;;;5064472;28;20025;-77
2020/12/15 02:44:26;;;;;;;1.52;1.20;;;7.40;99.90;;;;;;5062277;28;20021;-77
2020/12/15 02:46:52;;;;;;;2.30;1.70;;;7.30;99.90;;;;;;5063070;28;20028;-76
2020/12/15 02:49:18;;;;;;;5.40;1.77;;;7.50;99.90;;;;;;5063275;28;20032;-76
2020/12/15 02:51:50;;;;;;;4.45;1.95;;;7.30;99.90;;;;;;5064393;28;20047;-77
2020/12/15 02:54:17;;;;;;;2.65;1.88;;;7.40;99.90;;;;;;5064328;28;20093;-76
2020/12/15 02:56:42;;;;;;;3.03;1.98;;;7.30;99.90;;;;;;5064532;28;20043;-76
2020/12/15 02:59:09;;;;;;;3.67;1.65;;;7.40;99.90;;;;;;5063154;28;20025;-77
2020/12/15 03:01:43;;;;;;;7.47;2.75;;;7.40;99.90;;;;;;5064383;28;20025;-76
2020/12/15 03:04:10;;;;;;;4.90;1.95;;;7.30;99.90;;;;;;5063245;28;20045;-77
2020/12/15 03:06:36;;;;;;;6.38;2.40;;;7.40;99.90;;;;;;5063580;28;20026;-76
2020/12/15 03:09:05;;;;;;;2.67;1.52;;;7.40;99.90;;;;;;5063003;28;20018;-77
2020/12/15 03:11:31;;;;;;;3.60;1.67;;;7.30;99.90;;;;;;5064334;28;20023;-76
2020/12/15 03:13:57;;;;;;;2.97;1.58;;;7.40;99.90;;;;;;5062909;28;20163;-77
2020/12/15 03:16:22;;;;;;;3.83;2.13;;;7.40;99.90;;;;;;5064079;28;20021;-76
2020/12/15 03:18:48;;;;;;;2.80;2.20;;;7.40;99.90;;;;;;5064378;28;20025;-77
2020/12/15 03:21:17;;;;;;;2.92;1.52;;;7.40;99.90;;;;;;5062818;28;20074;-77
2020/12/15 03:23:42;;;;;;;3.97;2.13;;;7.30;99.90;;;;;;5062931;28;20021;-77
2020/12/15 03:26:08;;;;;;;5.07;1.90;;;7.30;99.90;;;;;;5064196;28;20055;-77
2020/12/15 03:28:34;;;;;;;1.98;1.60;;;7.30;99.90;;;;;;5062999;28;20112;-76
2020/12/15 03:31:00;;;;;;;4.43;2.22;;;7.30;99.90;;;;;;5064173;28;20033;-77
2020/12/15 03:33:25;;;;;;;4.10;1.85;;;7.40;99.90;;;;;;5064106;28;20071;-77
2020/12/15 03:35:51;;;;;;;4.07;1.85;;;7.40;99.90;;;;;;5062647;28;20096;-77
2020/12/15 03:38:16;;;;;;;3.35;1.45;;;7.30;99.90;;;;;;5062765;28;20035;-76
2020/12/15 03:40:42;;;;;;;3.85;2.10;;;7.30;99.90;;;;;;5064090;28;20055;-77
2020/12/15 03:43:07;;;;;;;3.08;2.15;;;7.30;99.90;;;;;;5064061;28;20380;-77
2020/12/15 03:45:33;;;;;;;4.00;1.95;;;7.30;99.90;;;;;;5062741;28;20024;-77
2020/12/15 03:47:59;;;;;;;3.33;1.95;;;7.30;99.90;;;;;;5064093;28;20081;-77
2020/12/15 03:50:25;;;;;;;2.45;1.98;;;7.20;99.90;;;;;;5062534;28;20024;-78
2020/12/15 03:52:51;;;;;;;3.83;2.00;;;7.30;99.90;;;;;;5064036;28;20013;-77
2020/12/15 03:55:21;;;;;;;3.10;2.00;;;7.30;99.90;;;;;;5065732;28;20082;-78
2020/12/15 03:57:51;;;;;;;2.65;1.73;;;7.20;99.90;;;;;;5067547;28;20017;-78
2020/12/15 04:00:17;;;;;;;2.75;2.30;;;7.20;99.90;;;;;;5067605;28;20043;-76
2020/12/15 04:02:43;;;;;;;4.32;2.35;;;7.30;99.90;;;;;;5066171;28;20029;-77
2020/12/15 04:05:09;;;;;;;6.25;2.97;;;7.20;99.90;;;;;;5067236;28;20047;-77
2020/12/15 04:07:35;;;;;;;7.13;2.40;;;7.30;99.90;;;;;;5066134;28;20025;-79
2020/12/15 04:10:00;;;;;;;3.88;1.88;;;7.20;99.90;;;;;;5066130;28;20089;-78
2020/12/15 04:12:26;;;;;;;4.57;2.03;;;7.20;99.90;;;;;;5067291;28;20024;-77
2020/12/15 04:14:51;;;;;;;4.15;2.75;;;7.20;99.90;;;;;;5066070;28;20060;-77
2020/12/15 04:17:17;;;;;;;8.00;2.90;;;7.30;99.90;;;;;;5067278;28;20060;-78
2020/12/15 04:19:42;;;;;;;5.05;2.55;;;7.20;99.90;;;;;;5065915;28;20016;-76
2020/12/15 04:22:08;;;;;;;2.33;1.83;;;7.20;99.90;;;;;;5065711;28;20032;-78
2020/12/15 04:24:33;;;;;;;5.18;3.08;;;7.20;99.90;;;;;;5065943;28;20044;-78
2020/12/15 04:26:59;;;;;;;4.10;2.10;;;7.30;99.90;;;;;;5065650;28;20029;-77
2020/12/15 04:29:25;;;;;;;4.97;2.90;;;7.30;99.90;;;;;;5066954;28;20453;-77
2020/12/15 04:31:51;;;;;;;3.05;2.22;;;7.20;99.90;;;;;;5065446;28;20462;-78
2020/12/15 04:34:16;;;;;;;3.35;2.05;;;7.30;99.90;;;;;;5065507;28;20029;-79
2020/12/15 04:36:42;;;;;;;3.47;2.38;;;7.20;99.90;;;;;;5066998;28;20021;-77
2020/12/15 04:39:08;;;;;;;4.53;2.33;;;7.20;99.90;;;;;;5066899;28;20020;-78
2020/12/15 04:41:33;;;;;;;3.90;2.17;;;7.20;99.90;;;;;;5065577;28;20062;-77
2020/12/15 04:44:00;;;;;;;4.25;2.42;;;7.20;99.90;;;;;;5065416;28;20041;-78
2020/12/15 04:46:27;;;;;;;4.97;2.25;;;7.30;99.90;;;;;;5066577;28;20024;-78
2020/12/15 04:49:05;;;;;;;4.60;2.38;;;7.20;99.90;;;;;;5066455;28;20021;-77
2020/12/15 04:51:53;;;;;;;3.30;1.90;;;7.30;99.90;;;;;;5066596;28;20021;-78
2020/12/15 04:54:27;;;;;;;4.90;2.20;;;7.20;99.90;;;;;;5066471;28;20084;-77
2020/12/15 04:57:00;;;;;;;4.85;2.00;;;7.30;99.90;;;;;;5066347;28;20021;-78
2020/12/15 04:59:30;;;;;;;4.28;2.50;;;7.20;99.90;;;;;;5065405;28;20017;-77
2020/12/15 05:02:02;;;;;;;3.35;2.28;;;7.10;99.90;;;;;;5066315;28;20526;-78
2020/12/15 05:04:31;;;;;;;3.50;2.28;;;7.10;99.90;;;;;;5064867;28;20051;-77
2020/12/15 05:06:59;;;;;;;2.88;2.13;;;7.20;99.90;;;;;;5063888;28;20029;-77
2020/12/15 05:09:29;;;;;;;5.07;2.70;;;7.10;99.90;;;;;;5069204;28;20080;-79
2020/12/15 05:11:56;;;;;;;4.45;2.17;;;7.10;99.90;;;;;;5066790;28;20028;-77
2020/12/15 05:14:23;;;;;;;3.58;2.15;;;7.00;99.90;;;;;;5064670;28;20044;-77
2020/12/15 05:16:48;;;;;;;3.15;2.28;;;7.00;99.90;;;;;;5066267;28;20357;-77
2020/12/15 05:19:14;;;;;;;4.55;2.85;;;7.00;99.90;;;;;;5064677;28;20027;-78
2020/12/15 05:21:51;;;;;;;4.07;2.33;;;7.00;99.90;;;;;;5064219;28;20021;-79
2020/12/15 05:24:21;;;;;;;3.28;2.25;;;7.00;99.90;;;;;;5062036;28;20021;-78
2020/12/15 05:26:47;;;;;;;3.80;2.28;;;7.00;99.90;;;;;;5063489;28;20067;-77
2020/12/15 05:29:17;;;;;;;4.10;2.33;;;7.00;99.90;;;;;;5063953;28;20017;-78
2020/12/15 05:31:43;;;;;;;4.50;2.65;;;7.00;99.90;;;;;;5064018;28;20033;-77
2020/12/15 05:34:12;;;;;;;4.95;2.90;;;7.00;99.90;;;;;;5063947;28;20025;-77
2020/12/15 05:36:58;;;;;;;3.17;2.05;;;7.10;99.90;;;;;;5064259;28;20020;-78
2020/12/15 05:39:25;;;;;;;7.20;2.78;;;7.10;99.90;;;;;;5064152;28;20034;-77
2020/12/15 05:42:07;;;;;;;8.93;3.08;;;7.10;99.90;;;;;;5064271;28;20027;-77
2020/12/15 05:44:35;;;;;;;3.55;2.17;;;7.20;99.90;;;;;;5064335;28;20028;-78
2020/12/15 05:47:06;;;;;;;4.28;2.58;;;7.20;99.90;;;;;;5065300;28;20055;-77
2020/12/15 05:49:34;;;;;;;3.70;2.42;;;7.20;99.90;;;;;;5064115;28;20025;-79
2020/12/15 05:52:00;;;;;;;3.42;1.92;;;7.30;99.90;;;;;;5065305;28;20099;-77
2020/12/15 05:54:27;;;;;;;5.50;2.92;;;7.20;99.90;;;;;;5065219;28;20029;-77
2020/12/15 05:57:21;;;;;;;3.88;2.47;;;7.20;99.90;;;;;;5064005;28;20025;-78
2020/12/15 05:59:47;;;;;;;3.33;2.03;;;7.30;99.90;;;;;;5079857;28;20055;-78
2020/12/15 06:02:13;;;;;;;6.97;2.92;;;7.30;99.90;;;;;;5063783;28;20119;-77
2020/12/15 06:04:39;;;;;;;3.38;2.08;;;7.30;99.90;;;;;;5065228;28;20037;-79
2020/12/15 06:07:06;;;;;;;3.83;2.33;;;7.20;99.90;;;;;;5065340;28;20040;-77
2020/12/15 06:09:33;;;;;;;8.80;2.97;;;7.20;99.90;;;;;;5063555;28;20027;-77
2020/12/15 06:11:59;;;;;;;3.55;2.15;;;7.30;99.90;;;;;;5065039;28;20381;-77
2020/12/15 06:14:26;;;;;;;3.88;2.72;;;7.30;99.90;;;;;;5063542;28;20025;-77
2020/12/15 06:16:52;;;;;;;12.10;2.65;;;7.30;99.90;;;;;;5064937;28;20025;-78
2020/12/15 06:19:19;;;;;;;4.28;1.90;;;7.20;99.90;;;;;;5063407;28;20047;-77
2020/12/15 06:21:54;;;;;;;3.45;2.63;;;7.30;99.90;;;;;;5065035;28;20111;-78
2020/12/15 06:24:37;;;;;;;2.90;2.15;;;7.20;99.90;;;;;;5063294;28;20040;-78
2020/12/15 06:27:04;;;;;;;5.90;2.70;;;7.20;99.90;;;;;;5063670;28;20496;-77
2020/12/15 06:29:35;;;;;;;4.30;2.35;;;7.20;99.90;;;;;;5062181;28;20524;-78
2020/12/15 06:32:03;;;;;;;6.40;1.90;;;7.20;99.90;;;;;;5062590;28;20025;-78
2020/12/15 06:34:31;;;;;;;3.75;2.40;;;7.20;99.90;;;;;;5062833;28;20045;-77
2020/12/15 06:36:57;;;;;;;4.15;2.58;;;7.20;99.90;;;;;;5063392;28;20056;-78
2020/12/15 06:39:25;;;;;;;4.35;1.92;;;7.20;99.90;;;;;;5064598;28;20024;-77
2020/12/15 06:42:01;;;;;;;5.72;2.65;;;7.20;99.90;;;;;;5063218;28;20044;-78
2020/12/15 06:44:35;;;;;;;4.35;2.42;;;7.20;99.90;;;;;;5063487;28;20025;-78
2020/12/15 06:47:03;;;;;;;3.40;2.10;;;7.30;99.90;;;;;;5063360;28;20029;-77
2020/12/15 06:49:34;;;;;;;3.85;2.38;;;7.40;99.90;;;;;;5064592;28;20029;-77
2020/12/15 06:52:06;;;;;;;4.95;2.50;;;7.30;99.90;;;;;;5063075;28;20032;-76
2020/12/15 06:54:36;;;;;;;4.75;2.67;;;7.20;99.90;;;;;;5063193;28;20112;-77
2020/12/15 06:57:11;;;;;;;3.67;2.60;;;7.30;99.90;;;;;;5064218;28;20017;-77
2020/12/15 06:59:48;;;;;;;5.75;2.60;;;7.30;99.90;;;;;;5063637;28;20040;-78
2020/12/15 07:02:17;;;;;;;5.07;2.50;;;7.30;99.90;;;;;;5062924;28;20023;-78
2020/12/15 07:04:47;;;;;;;11.57;2.97;;;7.20;99.90;;;;;;5062847;28;20045;-79
2020/12/15 07:07:15;;;;;;;5.22;2.38;;;7.20;99.90;;;;;;5063600;28;20021;-78
2020/12/15 07:09:45;;;;;;;4.50;2.42;;;7.20;99.90;;;;;;5062264;28;20453;-78
2020/12/15 07:12:15;;;;;;;3.22;2.08;;;7.20;99.90;;;;;;5063755;28;20025;-77
2020/12/15 07:14:44;;;;;;;3.90;2.42;;;7.20;99.90;;;;;;5062528;28;20037;-79
2020/12/15 07:17:11;;;;;;;4.30;2.03;;;7.20;99.90;;;;;;5063988;28;20017;-79
2020/12/15 07:19:37;;;;;;;4.28;2.47;;;7.20;99.90;;;;;;5062708;28;20055;-77
2020/12/15 07:22:05;;;;;;;5.32;2.65;;;7.20;99.90;;;;;;5062086;28;20028;-78
2020/12/15 07:24:31;;;;;;;5.35;2.58;;;7.20;99.90;;;;;;5060776;28;20033;-79
2020/12/15 07:26:58;;;;;;;4.90;2.78;;;7.30;99.90;;;;;;5062851;28;20517;-78
2020/12/15 07:29:24;;;;;;;4.57;2.58;;;7.20;99.90;;;;;;5061798;28;20017;-79
2020/12/15 07:31:49;;;;;;;5.70;2.88;;;7.30;99.90;;;;;;5065251;28;20035;-79
2020/12/15 07:34:18;;;;;;;5.07;2.70;;;7.30;99.90;;;;;;5066835;28;20032;-80
2020/12/15 07:36:48;;;;;;;5.07;2.47;;;7.30;99.90;;;;;;5066642;28;20358;-81
2020/12/15 07:39:14;;;;;;;4.50;2.60;;;7.30;99.90;;;;;;5064902;28;20017;-80
2020/12/15 07:41:41;;;;;;;4.53;2.45;;;7.30;99.90;;;;;;5067084;28;20021;-82
2020/12/15 07:44:12;;;;;;;3.65;2.70;;;7.30;99.90;;;;;;5065703;28;20025;-81
2020/12/15 07:46:44;;;;;;;3.95;1.95;;;7.30;99.90;;;;;;5066788;28;20119;-79
2020/12/15 07:49:10;;;;;;;4.70;2.78;;;7.40;99.90;;;;;;5065711;28;20029;-79
2020/12/15 07:51:43;;;;;;;11.00;2.03;;;7.50;99.90;;;;;;5065294;28;20040;-77
2020/12/15 07:54:10;;;;;;;4.70;2.50;;;7.40;99.90;;;;;;5065159;28;20037;-78
2020/12/15 07:56:36;;;;;;;3.33;2.30;;;7.40;99.90;;;;;;5065091;28;20029;-78
2020/12/15 07:59:02;;;;;;;6.30;3.05;;;7.40;99.90;;;;;;5066167;28;20053;-79
2020/12/15 08:01:29;;;;;;;3.67;2.40;;;7.40;99.90;;;;;;5064958;28;20024;-78
2020/12/15 08:04:11;;;;;;;3.63;2.13;;;7.30;99.90;;;;;;5064770;28;20052;-79
2020/12/15 08:06:46;;;;;;;3.85;2.42;;;7.40;99.90;;;;;;5065223;28;20428;-77
2020/12/15 08:09:14;;;;;;;3.85;2.70;;;7.40;99.90;;;;;;5066853;28;20031;-79
2020/12/15 08:11:45;;;;;;;8.68;3.47;;;7.40;99.90;;;;;;5066717;28;20020;-78
2020/12/15 08:14:12;;;;;;;12.70;2.42;;;7.40;99.90;;;;;;5066527;28;20067;-78
2020/12/15 08:16:38;;;;;;;4.70;2.95;;;7.50;99.90;;;;;;5065225;28;20052;-78
2020/12/15 08:19:05;;;;;;;5.70;2.95;;;7.50;99.90;;;;;;5066461;28;20531;-77
2020/12/15 08:21:45;;;;;;;4.53;2.20;;;7.40;99.90;;;;;;5066499;28;20074;-78
2020/12/15 08:24:13;;;;;;;4.72;2.80;;;7.50;99.90;;;;;;5064872;28;20052;-76
2020/12/15 08:26:41;;;;;;;8.10;3.10;;;7.60;99.90;;;;;;5064769;28;20177;-78
2020/12/15 08:29:10;;;;;;;4.63;2.70;;;7.60;99.90;;;;;;5065106;28;20029;-77
2020/12/15 08:31:38;;;;;;;7.22;2.72;;;7.70;99.90;;;;;;5065184;28;20051;-77
2020/12/15 08:34:14;;;;;;;5.90;2.90;;;7.70;99.90;;;;;;5063901;28;20028;-77
2020/12/15 08:36:54;;;;;;;14.25;2.85;;;7.70;99.90;;;;;;5044669;28;20036;-78
2020/12/15 08:39:22;;;;;;;4.55;2.83;;;7.80;99.90;;;;;;5044816;28;20025;-77
2020/12/15 08:41:50;;;;;;;5.35;2.75;;;7.90;99.90;;;;;;5045625;28;20049;-76
2020/12/15 08:44:17;;;;;;;5.00;2.67;;;7.80;99.90;;;;;;5045752;28;20032;-78
2020/12/15 08:46:44;;;;;;;5.47;3.13;;;7.90;99.90;;;;;;5048956;28;20029;-78
2020/12/15 08:49:15;;;;;;;6.20;3.20;;;7.90;99.90;;;;;;5046796;28;20052;-78
2020/12/15 08:51:46;;;;;;;5.30;2.78;;;7.90;99.90;;;;;;5045997;28;20029;-79
2020/12/15 08:54:12;;;;;;;7.63;3.78;;;8.00;99.90;;;;;;5044173;28;20052;-79
2020/12/15 08:56:39;;;;;;;5.28;3.08;;;8.00;99.90;;;;;;5044419;28;20025;-78
2020/12/15 08:59:10;;;;;;;6.47;3.35;;;8.10;99.90;;;;;;5045227;28;20017;-79
2020/12/15 09:01:36;;;;;;;8.55;2.95;;;8.10;99.90;;;;;;5045818;28;20026;-77
2020/12/15 09:04:02;;;;;;;4.68;2.58;;;8.10;99.90;;;;;;5045164;28;20053;-79
2020/12/15 09:06:36;;;;;;;3.50;2.45;;;8.10;99.90;;;;;;5045416;28;20413;-76
2020/12/15 09:09:04;;;;;;;4.95;3.00;;;8.10;99.90;;;;;;5044036;28;20080;-77
2020/12/15 09:11:29;;;;;;;3.92;2.53;;;8.10;99.90;;;;;;5045499;28;20021;-78
2020/12/15 09:14:06;;;;;;;5.55;2.78;;;8.10;99.90;;;;;;5043891;28;20100;-78
2020/12/15 09:16:33;;;;;;;5.13;2.95;;;8.10;99.90;;;;;;5045319;28;20344;-77
2020/12/15 09:19:14;;;;;;;3.75;2.13;;;8.10;99.90;;;;;;5045216;28;20018;-78
2020/12/15 09:21:53;;;;;;;8.20;3.17;;;8.20;99.90;;;;;;5045791;28;20021;-78
2020/12/15 09:24:19;;;;;;;4.90;2.63;;;8.20;99.90;;;;;;5044780;28;20026;-79
2020/12/15 09:26:47;;;;;;;5.88;3.05;;;8.30;99.90;;;;;;5043589;28;20113;-78
2020/12/15 09:29:12;;;;;;;4.97;3.10;;;8.30;99.90;;;;;;5044796;28;20051;-79
2020/12/15 09:31:43;;;;;;;4.97;3.10;;;8.40;99.90;;;;;;5044904;28;20029;-77
2020/12/15 09:34:09;;;;;;;3.38;2.47;;;8.40;99.90;;;;;;5043436;28;20033;-78
2020/12/15 09:36:36;;;;;;;4.60;2.83;;;8.40;99.90;;;;;;5042748;28;20112;-78
2020/12/15 09:39:03;;;;;;;9.02;3.20;;;8.50;99.90;;;;;;5042393;28;20032;-78
2020/12/15 09:41:34;;;;;;;5.70;3.33;;;8.50;99.90;;;;;;5044668;28;20022;-77
2020/12/15 09:43:59;;;;;;;4.55;3.05;;;8.50;99.90;;;;;;5043212;28;20027;-77
2020/12/15 09:46:25;;;;;;;8.77;3.72;;;8.60;99.90;;;;;;5042320;28;20021;-77
2020/12/15 09:48:50;;;;;;;5.28;2.70;;;8.60;99.90;;;;;;5042213;28;20021;-78
2020/12/15 09:51:16;;;;;;;4.28;2.95;;;8.60;99.90;;;;;;5042782;28;20032;-77
2020/12/15 09:53:44;;;;;;;5.85;2.95;;;8.70;99.90;;;;;;5042366;28;20021;-79
2020/12/15 09:56:20;;;;;;;7.50;2.67;;;8.70;99.90;;;;;;5044528;28;20026;-78
2020/12/15 09:58:46;;;;;;;4.97;2.85;;;8.70;99.90;;;;;;5043606;28;20056;-81
2020/12/15 10:01:13;;;;;;;7.50;3.17;;;8.70;99.90;;;;;;5043319;28;20029;-78
2020/12/15 10:03:40;;;;;;;5.30;2.83;;;8.60;99.90;;;;;;5043904;28;20072;-78
2020/12/15 10:06:05;;;;;;;6.50;2.90;;;8.70;99.90;;;;;;5044313;28;20029;-77
2020/12/15 10:08:31;;;;;;;5.20;2.90;;;8.70;99.90;;;;;;5043884;28;20032;-77
2020/12/15 10:10:56;;;;;;;6.65;2.70;;;8.70;99.90;;;;;;5044225;28;20036;-77
2020/12/15 10:13:22;;;;;;;4.38;2.75;;;8.70;99.90;;;;;;5041997;28;20018;-78
2020/12/15 10:15:47;;;;;;;4.70;2.53;;;8.80;99.90;;;;;;5042486;28;20029;-78
2020/12/15 10:18:13;;;;;;;5.80;2.88;;;8.80;99.90;;;;;;5042738;28;20132;-78
2020/12/15 10:20:41;;;;;;;7.38;3.15;;;8.80;99.90;;;;;;5042610;28;20040;-77
2020/12/15 10:23:07;;;;;;;7.18;3.10;;;8.80;99.90;;;;;;5043987;28;20013;-77
2020/12/15 10:25:33;;;;;;;8.57;2.72;;;8.90;99.90;;;;;;5043092;28;20048;-78
2020/12/15 10:27:58;;;;;;;5.45;2.85;;;8.90;99.90;;;;;;5042318;28;20025;-77
2020/12/15 10:30:24;;;;;;;5.63;2.83;;;8.90;99.90;;;;;;5041848;28;20021;-76
2020/12/15 10:32:49;;;;;;;5.13;2.83;;;8.90;99.90;;;;;;5042422;28;20025;-78
2020/12/15 10:35:15;;;;;;;5.68;2.95;;;8.90;99.90;;;;;;5042144;28;20038;-77
2020/12/15 10:37:41;;;;;;;6.45;3.42;;;9.00;99.90;;;;;;5041781;28;20025;-78
2020/12/15 10:40:07;;;;;;;5.18;2.55;;;9.00;99.90;;;;;;5043919;28;20013;-77
2020/12/15 10:42:32;;;;;;;5.85;2.90;;;9.00;99.90;;;;;;5042979;28;20050;-78
2020/12/15 10:44:58;;;;;;;6.18;3.13;;;9.00;99.90;;;;;;5043073;28;20041;-77
2020/12/15 10:47:23;;;;;;;4.25;2.75;;;9.00;99.90;;;;;;5042153;28;20022;-77
2020/12/15 10:49:49;;;;;;;4.90;3.38;;;9.00;99.90;;;;;;5042640;28;20026;-77
2020/12/15 10:52:15;;;;;;;5.18;3.05;;;9.00;99.90;;;;;;5043228;28;20041;-79
2020/12/15 10:54:41;;;;;;;6.22;3.05;;;9.00;99.90;;;;;;5043468;28;20075;-78
2020/12/15 10:57:06;;;;;;;3.78;2.63;;;9.00;99.90;;;;;;5042459;28;20022;-77
2020/12/15 10:59:32;;;;;;;5.13;3.08;;;9.10;99.90;;;;;;5045481;28;20028;-77
2020/12/15 11:01:57;;;;;;;6.35;2.63;;;9.10;99.90;;;;;;5048807;28;20070;-78
2020/12/15 11:04:23;;;;;;;5.05;2.90;;;9.10;99.90;;;;;;5055816;28;20140;-78
2020/12/15 11:06:48;;;;;;;3.97;3.15;;;9.20;99.90;;;;;;5055514;28;20028;-78
2020/12/15 11:09:15;;;;;;;6.43;2.97;;;9.20;99.90;;;;;;5062399;28;20021;-79
2020/12/15 11:11:48;;;;;;;4.78;2.38;;;9.20;99.90;;;;;;5066478;28;20017;-78
2020/12/15 11:14:15;;;;;;;6.90;3.25;;;9.20;99.90;;;;;;5066008;28;20029;-77
2020/12/15 11:16:40;;;;;;;3.95;2.47;;;9.20;99.90;;;;;;5066257;28;20041;-80
2020/12/15 11:19:06;;;;;;;6.65;3.33;;;9.20;99.90;;;;;;5065415;28;20021;-78
2020/12/15 11:21:31;;;;;;;7.07;3.50;;;9.30;99.90;;;;;;5064598;28;20021;-77
2020/12/15 11:23:57;;;;;;;4.20;2.65;;;9.30;99.90;;;;;;5069534;28;20021;-76
2020/12/15 11:26:23;;;;;;;5.25;3.10;;;9.30;99.90;;;;;;5058166;28;20048;-78
2020/12/15 11:28:48;;;;;;;4.50;2.45;;;9.30;99.90;;;;;;5061988;28;20029;-77
2020/12/15 11:31:15;;;;;;;6.05;3.60;;;9.30;99.90;;;;;;5062037;28;20024;-78
2020/12/15 11:33:42;;;;;;;7.70;3.30;;;9.30;99.90;;;;;;5066500;28;20013;-79
2020/12/15 11:36:10;;;;;;;8.35;3.38;;;9.30;99.90;;;;;;5062101;28;20037;-78
2020/12/15 11:38:39;;;;;;;5.95;3.30;;;9.30;99.90;;;;;;5053982;28;20022;-77
2020/12/15 11:41:05;;;;;;;5.93;3.67;;;9.30;99.90;;;;;;5058677;28;20485;-78
2020/12/15 11:43:30;;;;;;;5.80;3.20;;;9.20;99.90;;;;;;5066057;28;20128;-77
2020/12/15 11:45:56;;;;;;;7.80;3.60;;;9.20;99.90;;;;;;5066552;28;20077;-77
2020/12/15 11:48:22;;;;;;;6.90;3.30;;;9.20;99.90;;;;;;5064698;28;20017;-77
2020/12/15 11:50:47;;;;;;;4.68;3.13;;;9.30;99.90;;;;;;5064122;28;20062;-78
2020/12/15 11:53:14;;;;;;;7.78;4.45;;;9.20;99.90;;;;;;5057924;28;20036;-78
2020/12/15 11:55:40;;;;;;;8.45;4.18;;;9.30;99.90;;;;;;5066413;28;20025;-78
2020/12/15 11:58:06;;;;;;;8.98;4.35;;;9.30;99.90;;;;;;5065028;28;20036;-76
2020/12/15 12:00:32;;;;;;;6.78;3.95;;;9.20;99.90;;;;;;5063904;28;20033;-78
2020/12/15 12:02:57;;;;;;;7.85;3.67;;;9.30;99.90;;;;;;5065184;28;20092;-79
2020/12/15 12:05:23;;;;;;;5.57;3.83;;;9.30;99.90;;;;;;5063482;28;20412;-76
2020/12/15 12:07:48;;;;;;;6.82;3.70;;;9.30;99.90;;;;;;5064560;28;20037;-81
2020/12/15 12:10:14;;;;;;;4.75;3.20;;;9.30;99.90;;;;;;5064288;28;20035;-79
2020/12/15 12:12:41;;;;;;;6.97;3.85;;;9.30;99.90;;;;;;5065646;28;20438;-79
2020/12/15 12:15:08;;;;;;;5.43;3.15;;;9.30;99.90;;;;;;5065191;28;20086;-76
2020/12/15 12:17:34;;;;;;;14.55;3.25;;;9.30;99.90;;;;;;5060375;28;20405;-78
2020/12/15 12:19:59;;;;;;;6.60;3.45;;;9.30;99.90;;;;;;5058968;28;20032;-77
2020/12/15 12:22:25;;;;;;;6.55;3.80;;;9.30;99.90;;;;;;5065081;28;20013;-78
2020/12/15 12:24:51;;;;;;;5.97;4.03;;;9.30;99.90;;;;;;5065558;28;20073;-79
2020/12/15 12:27:16;;;;;;;6.85;4.25;;;9.30;99.90;;;;;;5063451;28;20450;-78
2020/12/15 12:29:42;;;;;;;9.38;4.43;;;9.30;99.90;;;;;;5065977;28;20021;-79
2020/12/15 12:32:09;;;;;;;8.07;3.75;;;9.40;99.90;;;;;;5061223;28;20030;-77
2020/12/15 12:34:35;;;;;;;7.68;4.05;;;9.30;99.90;;;;;;5055956;28;20500;-77
2020/12/15 12:37:01;;;;;;;7.72;4.35;;;9.40;99.90;;;;;;5065699;28;20029;-78
2020/12/15 12:39:27;;;;;;;8.45;4.55;;;9.30;99.90;;;;;;5064167;28;20025;-75
2020/12/15 12:41:53;;;;;;;6.70;3.80;;;9.30;99.90;;;;;;5065076;28;20084;-77
2020/12/15 12:44:21;;;;;;;7.78;4.18;;;9.30;99.90;;;;;;5065005;28;20025;-78
2020/12/15 12:46:51;;;;;;;5.35;3.65;;;9.30;99.90;;;;;;5064667;28;20021;-77
2020/12/15 12:49:16;;;;;;;9.32;4.47;;;9.30;99.90;;;;;;5063110;28;20044;-77
2020/12/15 12:51:47;;;;;;;7.25;3.92;;;9.40;99.90;;;;;;5064326;28;20028;-78
2020/12/15 12:54:13;;;;;;;9.10;4.55;;;9.30;99.90;;;;;;5064077;28;20033;-79
2020/12/15 12:56:43;;;;;;;7.15;3.97;;;9.30;99.90;;;;;;5063818;28;20029;-78
2020/12/15 12:59:17;;;;;;;10.65;4.22;;;9.30;99.90;;;;;;5055012;28;20071;-79